Lynn Haven, Florida
Current Conditions -  °F | °C
As of 5:53 PM on Saturday 22 Nov 2014 (Local Time) from KECP Reporting Station
Haze Haze  
Wind Chill: 61°   Ceiling: 700
Heat Index: 61°   Visibility: 5mi
Dew Point: 59°   Wind: 9mph
Humidity: 93%   Direction: 40°NE
Pressure: 30.09"   Gusts: NA
Location:  30.24°N, 85.65°W
Report Text: KECP 222353Z 04008KT 5SM BR BKN007 OVC047 16/15 A3009 RMK AO2 RAB15E52 SLP201 P0000 60001 T01610150 10167 20161 56012 $
Loading
Personal Weather Stations






























Interactive Weather Map New forecast layout! Learn more

10-Day Weather Forecast

Advertisements
Track Severe Weather on mobile